Terminal Aerodrome Forecast
Issued by NWS Los Angeles, CA

Home | Current Version | Previous Version | Text Only | Print | Product List | Glossary On
Versions: 1 2 3 4 5 6 7 8 9 10 11 12 13 14 15
000
FTUS46 KLOX 032300
TAFSMX
TAF
KSMX 032340Z 0400/0424 29016KT P6SM SCT070
     FM040200 33008KT P6SM SKC
     FM040400 VRB03KT P6SM SKC
     FM042000 30008KT P6SM SKC=

USA.gov is the U.S. government's official web portal to all federal, state and local government web resources and services.